sensor_id;sensor_type;location;lat;lon;timestamp;pressure;altitude;pressure_sealevel;temperature;humidity
34103;BME280;20381;54.498;18.206;2023-06-26T00:00:07;99781.42;;;11.98;62.61
34103;BME280;20381;54.498;18.206;2023-06-26T00:02:34;99775.58;;;11.93;62.64
34103;BME280;20381;54.498;18.206;2023-06-26T00:05:01;99770.52;;;11.90;62.68
34103;BME280;20381;54.498;18.206;2023-06-26T00:07:30;99776.31;;;11.88;62.82
34103;BME280;20381;54.498;18.206;2023-06-26T00:10:00;99773.95;;;11.81;62.93
34103;BME280;20381;54.498;18.206;2023-06-26T00:12:28;99773.36;;;11.76;62.97
34103;BME280;20381;54.498;18.206;2023-06-26T00:14:54;99780.35;;;11.67;63.08
34103;BME280;20381;54.498;18.206;2023-06-26T00:17:21;99782.22;;;11.65;63.07
34103;BME280;20381;54.498;18.206;2023-06-26T00:19:47;99780.30;;;11.60;63.19
34103;BME280;20381;54.498;18.206;2023-06-26T00:22:14;99779.14;;;11.57;63.45
34103;BME280;20381;54.498;18.206;2023-06-26T00:24:40;99774.98;;;11.53;63.77
34103;BME280;20381;54.498;18.206;2023-06-26T00:27:06;99770.28;;;11.51;63.90
34103;BME280;20381;54.498;18.206;2023-06-26T00:29:33;99775.91;;;11.52;63.98
34103;BME280;20381;54.498;18.206;2023-06-26T00:32:00;99771.58;;;11.51;64.00
34103;BME280;20381;54.498;18.206;2023-06-26T00:34:27;99775.14;;;11.50;64.10
34103;BME280;20381;54.498;18.206;2023-06-26T00:36:55;99769.91;;;11.50;64.07
34103;BME280;20381;54.498;18.206;2023-06-26T00:39:21;99769.12;;;11.48;64.05
34103;BME280;20381;54.498;18.206;2023-06-26T00:41:47;99775.82;;;11.45;63.69
34103;BME280;20381;54.498;18.206;2023-06-26T00:44:13;99776.12;;;11.38;63.69
34103;BME280;20381;54.498;18.206;2023-06-26T00:46:39;99774.14;;;11.35;63.73
34103;BME280;20381;54.498;18.206;2023-06-26T00:49:05;99771.21;;;11.32;64.02
34103;BME280;20381;54.498;18.206;2023-06-26T00:51:31;99771.68;;;11.32;64.01
34103;BME280;20381;54.498;18.206;2023-06-26T00:53:57;99772.36;;;11.27;64.22
34103;BME280;20381;54.498;18.206;2023-06-26T00:56:24;99771.12;;;11.25;64.28
34103;BME280;20381;54.498;18.206;2023-06-26T00:58:50;99768.66;;;11.22;64.11
34103;BME280;20381;54.498;18.206;2023-06-26T01:01:16;99773.26;;;11.17;64.15
34103;BME280;20381;54.498;18.206;2023-06-26T01:03:44;99772.66;;;11.12;64.40
34103;BME280;20381;54.498;18.206;2023-06-26T01:06:12;99767.50;;;11.10;64.41
34103;BME280;20381;54.498;18.206;2023-06-26T01:08:39;99766.80;;;11.07;64.63
34103;BME280;20381;54.498;18.206;2023-06-26T01:11:07;99759.13;;;11.04;64.74
34103;BME280;20381;54.498;18.206;2023-06-26T01:13:33;99758.87;;;11.00;64.77
34103;BME280;20381;54.498;18.206;2023-06-26T01:16:00;99761.62;;;10.96;64.96
34103;BME280;20381;54.498;18.206;2023-06-26T01:18:27;99757.86;;;10.93;65.03
34103;BME280;20381;54.498;18.206;2023-06-26T01:20:55;99758.02;;;10.90;65.14
34103;BME280;20381;54.498;18.206;2023-06-26T01:23:35;99756.30;;;10.89;65.12
34103;BME280;20381;54.498;18.206;2023-06-26T01:25:55;99753.25;;;10.90;65.23
34103;BME280;20381;54.498;18.206;2023-06-26T01:28:18;99752.94;;;10.87;65.13
34103;BME280;20381;54.498;18.206;2023-06-26T01:30:45;99745.16;;;10.86;65.11
34103;BME280;20381;54.498;18.206;2023-06-26T01:33:13;99750.84;;;10.85;65.22
34103;BME280;20381;54.498;18.206;2023-06-26T01:35:39;99748.61;;;10.86;65.39
34103;BME280;20381;54.498;18.206;2023-06-26T01:38:22;99743.63;;;10.82;65.31
34103;BME280;20381;54.498;18.206;2023-06-26T01:40:46;99747.23;;;10.79;65.41
34103;BME280;20381;54.498;18.206;2023-06-26T01:43:18;99742.91;;;10.78;65.46
34103;BME280;20381;54.498;18.206;2023-06-26T01:45:40;99743.05;;;10.75;65.45
34103;BME280;20381;54.498;18.206;2023-06-26T01:48:06;99739.84;;;10.70;65.51
34103;BME280;20381;54.498;18.206;2023-06-26T01:50:34;99732.13;;;10.67;65.42
34103;BME280;20381;54.498;18.206;2023-06-26T01:53:04;99737.34;;;10.67;65.51
34103;BME280;20381;54.498;18.206;2023-06-26T01:58:14;99739.73;;;10.63;65.43
34103;BME280;20381;54.498;18.206;2023-06-26T02:00:42;99729.44;;;10.60;65.51
34103;BME280;20381;54.498;18.206;2023-06-26T02:03:08;99733.50;;;10.57;65.55
34103;BME280;20381;54.498;18.206;2023-06-26T02:05:35;99727.49;;;10.55;65.61
34103;BME280;20381;54.498;18.206;2023-06-26T02:08:02;99731.41;;;10.55;65.54
34103;BME280;20381;54.498;18.206;2023-06-26T02:10:28;99728.48;;;10.52;65.43
34103;BME280;20381;54.498;18.206;2023-06-26T02:12:55;99725.55;;;10.49;65.56
34103;BME280;20381;54.498;18.206;2023-06-26T02:15:21;99729.61;;;10.46;65.57
34103;BME280;20381;54.498;18.206;2023-06-26T02:17:48;99721.78;;;10.46;65.75
34103;BME280;20381;54.498;18.206;2023-06-26T02:20:14;99729.61;;;10.46;65.95
34103;BME280;20381;54.498;18.206;2023-06-26T02:22:42;99723.03;;;10.48;66.25
34103;BME280;20381;54.498;18.206;2023-06-26T02:25:09;99723.35;;;10.50;66.41
34103;BME280;20381;54.498;18.206;2023-06-26T02:27:36;99718.13;;;10.50;66.51
34103;BME280;20381;54.498;18.206;2023-06-26T02:30:02;99715.05;;;10.51;66.72
34103;BME280;20381;54.498;18.206;2023-06-26T02:32:29;99712.65;;;10.46;66.38
34103;BME280;20381;54.498;18.206;2023-06-26T02:34:55;99719.32;;;10.43;66.54
34103;BME280;20381;54.498;18.206;2023-06-26T02:37:21;99713.31;;;10.41;66.68
34103;BME280;20381;54.498;18.206;2023-06-26T02:39:47;99717.78;;;10.39;66.64
34103;BME280;20381;54.498;18.206;2023-06-26T02:42:13;99713.75;;;10.32;66.77
34103;BME280;20381;54.498;18.206;2023-06-26T02:44:39;99707.89;;;10.27;66.83
34103;BME280;20381;54.498;18.206;2023-06-26T02:47:05;99705.61;;;10.29;66.93
34103;BME280;20381;54.498;18.206;2023-06-26T02:49:31;99708.02;;;10.34;67.04
34103;BME280;20381;54.498;18.206;2023-06-26T02:51:57;99707.78;;;10.39;66.96
34103;BME280;20381;54.498;18.206;2023-06-26T02:54:24;99702.13;;;10.39;66.90
34103;BME280;20381;54.498;18.206;2023-06-26T02:56:50;99708.67;;;10.48;67.12
34103;BME280;20381;54.498;18.206;2023-06-26T02:59:16;99701.39;;;10.55;67.10
34103;BME280;20381;54.498;18.206;2023-06-26T03:01:43;99704.78;;;10.57;66.98
34103;BME280;20381;54.498;18.206;2023-06-26T03:04:09;99709.85;;;10.60;67.09
34103;BME280;20381;54.498;18.206;2023-06-26T03:06:36;99707.09;;;10.63;67.14
34103;BME280;20381;54.498;18.206;2023-06-26T03:09:02;99702.66;;;10.65;66.99
34103;BME280;20381;54.498;18.206;2023-06-26T03:11:28;99700.19;;;10.62;66.91
34103;BME280;20381;54.498;18.206;2023-06-26T03:13:55;99702.39;;;10.61;67.15
34103;BME280;20381;54.498;18.206;2023-06-26T03:16:21;99698.59;;;10.68;67.35
34103;BME280;20381;54.498;18.206;2023-06-26T03:18:47;99701.21;;;10.77;67.55
34103;BME280;20381;54.498;18.206;2023-06-26T03:21:13;99693.85;;;10.85;67.88
34103;BME280;20381;54.498;18.206;2023-06-26T03:23:39;99692.87;;;10.96;67.97
34103;BME280;20381;54.498;18.206;2023-06-26T03:26:06;99699.03;;;11.04;67.87
34103;BME280;20381;54.498;18.206;2023-06-26T03:28:32;99695.17;;;11.11;67.87
34103;BME280;20381;54.498;18.206;2023-06-26T03:30:58;99693.80;;;11.21;68.05
34103;BME280;20381;54.498;18.206;2023-06-26T03:33:25;99695.10;;;11.30;67.98
34103;BME280;20381;54.498;18.206;2023-06-26T03:35:51;99695.16;;;11.37;67.97
34103;BME280;20381;54.498;18.206;2023-06-26T03:38:17;99691.78;;;11.43;68.08
34103;BME280;20381;54.498;18.206;2023-06-26T03:40:43;99687.01;;;11.52;68.33
34103;BME280;20381;54.498;18.206;2023-06-26T03:43:09;99684.84;;;11.60;68.53
34103;BME280;20381;54.498;18.206;2023-06-26T03:45:35;99687.13;;;11.66;68.39
34103;BME280;20381;54.498;18.206;2023-06-26T03:48:01;99692.03;;;11.72;68.41
34103;BME280;20381;54.498;18.206;2023-06-26T03:50:28;99695.47;;;11.81;68.55
34103;BME280;20381;54.498;18.206;2023-06-26T03:52:54;99694.88;;;11.94;68.92
34103;BME280;20381;54.498;18.206;2023-06-26T03:55:21;99690.81;;;12.04;69.25
34103;BME280;20381;54.498;18.206;2023-06-26T03:57:49;99683.80;;;12.13;69.36
34103;BME280;20381;54.498;18.206;2023-06-26T04:00:15;99682.75;;;12.24;69.54
34103;BME280;20381;54.498;18.206;2023-06-26T04:02:42;99677.19;;;12.38;69.66
34103;BME280;20381;54.498;18.206;2023-06-26T04:05:10;99672.06;;;12.52;69.74
34103;BME280;20381;54.498;18.206;2023-06-26T04:07:37;99677.36;;;12.66;69.76
34103;BME280;20381;54.498;18.206;2023-06-26T04:10:03;99679.09;;;12.82;69.92
34103;BME280;20381;54.498;18.206;2023-06-26T04:12:30;99672.81;;;13.00;70.04
34103;BME280;20381;54.498;18.206;2023-06-26T04:14:56;99674.34;;;13.18;70.34
34103;BME280;20381;54.498;18.206;2023-06-26T04:17:22;99677.78;;;13.35;70.26
34103;BME280;20381;54.498;18.206;2023-06-26T04:19:48;99674.91;;;13.54;70.31
34103;BME280;20381;54.498;18.206;2023-06-26T04:22:14;99675.56;;;13.72;70.42
34103;BME280;20381;54.498;18.206;2023-06-26T04:24:40;99666.58;;;13.90;70.49
34103;BME280;20381;54.498;18.206;2023-06-26T04:27:06;99670.77;;;14.07;70.69
34103;BME280;20381;54.498;18.206;2023-06-26T04:29:32;99661.64;;;14.27;70.75
34103;BME280;20381;54.498;18.206;2023-06-26T04:31:59;99660.72;;;14.48;70.81
34103;BME280;20381;54.498;18.206;2023-06-26T04:34:27;99653.84;;;14.67;70.91
34103;BME280;20381;54.498;18.206;2023-06-26T04:36:54;99659.49;;;14.88;70.90
34103;BME280;20381;54.498;18.206;2023-06-26T04:39:20;99652.16;;;15.06;70.94
34103;BME280;20381;54.498;18.206;2023-06-26T04:41:46;99659.75;;;15.23;70.90
34103;BME280;20381;54.498;18.206;2023-06-26T04:44:12;99650.63;;;15.41;71.01
34103;BME280;20381;54.498;18.206;2023-06-26T04:46:39;99645.03;;;15.59;70.85
34103;BME280;20381;54.498;18.206;2023-06-26T04:49:08;99644.73;;;15.76;70.94
34103;BME280;20381;54.498;18.206;2023-06-26T04:51:35;99643.45;;;15.95;70.87
34103;BME280;20381;54.498;18.206;2023-06-26T04:54:03;99643.44;;;16.13;70.94
34103;BME280;20381;54.498;18.206;2023-06-26T04:56:29;99643.45;;;16.31;70.94
34103;BME280;20381;54.498;18.206;2023-06-26T04:58:56;99648.10;;;16.52;71.08
34103;BME280;20381;54.498;18.206;2023-06-26T05:01:23;99639.69;;;16.71;70.87
34103;BME280;20381;54.498;18.206;2023-06-26T05:03:53;99645.45;;;16.89;70.73
34103;BME280;20381;54.498;18.206;2023-06-26T05:06:20;99646.68;;;17.07;70.82
34103;BME280;20381;54.498;18.206;2023-06-26T05:08:49;99646.00;;;17.28;70.74
34103;BME280;20381;54.498;18.206;2023-06-26T05:11:18;99640.99;;;17.47;70.63
34103;BME280;20381;54.498;18.206;2023-06-26T05:13:45;99641.63;;;17.67;70.56
34103;BME280;20381;54.498;18.206;2023-06-26T05:16:11;99637.94;;;17.87;70.32
34103;BME280;20381;54.498;18.206;2023-06-26T05:18:37;99639.00;;;18.07;69.89
34103;BME280;20381;54.498;18.206;2023-06-26T05:21:04;99626.83;;;18.27;69.30
34103;BME280;20381;54.498;18.206;2023-06-26T05:23:31;99634.94;;;18.46;69.05
34103;BME280;20381;54.498;18.206;2023-06-26T05:25:58;99631.84;;;18.68;69.08
34103;BME280;20381;54.498;18.206;2023-06-26T05:28:24;99630.70;;;18.87;68.84
34103;BME280;20381;54.498;18.206;2023-06-26T05:30:51;99626.53;;;19.06;68.58
34103;BME280;20381;54.498;18.206;2023-06-26T05:33:18;99628.06;;;19.29;68.53
34103;BME280;20381;54.498;18.206;2023-06-26T05:35:45;99625.52;;;19.49;67.93
34103;BME280;20381;54.498;18.206;2023-06-26T05:38:13;99625.30;;;19.67;67.98
34103;BME280;20381;54.498;18.206;2023-06-26T05:40:40;99623.78;;;19.89;67.60
34103;BME280;20381;54.498;18.206;2023-06-26T05:43:06;99626.22;;;20.12;67.69
34103;BME280;20381;54.498;18.206;2023-06-26T05:45:32;99620.96;;;20.31;67.30
34103;BME280;20381;54.498;18.206;2023-06-26T05:48:00;99622.09;;;20.48;66.80
34103;BME280;20381;54.498;18.206;2023-06-26T05:50:27;99615.30;;;20.65;66.84
34103;BME280;20381;54.498;18.206;2023-06-26T05:52:54;99614.30;;;20.86;66.79
34103;BME280;20381;54.498;18.206;2023-06-26T05:55:20;99616.59;;;21.04;66.35
34103;BME280;20381;54.498;18.206;2023-06-26T05:57:47;99614.53;;;21.21;65.79
34103;BME280;20381;54.498;18.206;2023-06-26T06:00:17;99616.47;;;21.39;65.62
34103;BME280;20381;54.498;18.206;2023-06-26T06:02:43;99616.07;;;21.57;65.31
34103;BME280;20381;54.498;18.206;2023-06-26T06:05:10;99613.54;;;21.79;64.81
34103;BME280;20381;54.498;18.206;2023-06-26T06:07:38;99619.02;;;21.96;64.58
34103;BME280;20381;54.498;18.206;2023-06-26T06:10:05;99618.59;;;22.14;64.47
34103;BME280;20381;54.498;18.206;2023-06-26T06:12:31;99627.30;;;22.34;64.05
34103;BME280;20381;54.498;18.206;2023-06-26T06:14:58;99620.69;;;22.52;63.43
34103;BME280;20381;54.498;18.206;2023-06-26T06:17:26;99623.00;;;22.69;63.00
34103;BME280;20381;54.498;18.206;2023-06-26T06:19:52;99620.13;;;22.84;62.28
34103;BME280;20381;54.498;18.206;2023-06-26T06:22:18;99620.61;;;22.97;62.29
34103;BME280;20381;54.498;18.206;2023-06-26T06:24:45;99617.33;;;23.08;61.71
34103;BME280;20381;54.498;18.206;2023-06-26T06:27:11;99617.64;;;23.05;61.55
34103;BME280;20381;54.498;18.206;2023-06-26T06:29:39;99615.34;;;23.06;61.07
34103;BME280;20381;54.498;18.206;2023-06-26T06:32:07;99615.30;;;23.01;60.85
34103;BME280;20381;54.498;18.206;2023-06-26T06:34:33;99619.15;;;23.03;60.61
34103;BME280;20381;54.498;18.206;2023-06-26T06:36:59;99616.75;;;23.18;60.48
34103;BME280;20381;54.498;18.206;2023-06-26T06:39:30;99611.86;;;23.35;59.97
34103;BME280;20381;54.498;18.206;2023-06-26T06:41:53;99612.97;;;23.55;59.02
34103;BME280;20381;54.498;18.206;2023-06-26T06:44:20;99606.45;;;23.75;58.94
34103;BME280;20381;54.498;18.206;2023-06-26T06:46:48;99604.48;;;23.85;58.72
34103;BME280;20381;54.498;18.206;2023-06-26T06:49:14;99601.91;;;24.10;58.26
34103;BME280;20381;54.498;18.206;2023-06-26T06:51:40;99602.31;;;24.40;58.39
34103;BME280;20381;54.498;18.206;2023-06-26T06:54:09;99602.72;;;24.82;57.66
34103;BME280;20381;54.498;18.206;2023-06-26T06:56:39;99601.36;;;25.27;56.70
34103;BME280;20381;54.498;18.206;2023-06-26T06:59:06;99597.85;;;25.78;56.97
34103;BME280;20381;54.498;18.206;2023-06-26T07:01:33;99596.98;;;26.21;56.27
34103;BME280;20381;54.498;18.206;2023-06-26T07:03:59;99594.12;;;26.53;55.58
34103;BME280;20381;54.498;18.206;2023-06-26T07:06:25;99602.76;;;26.83;55.70
34103;BME280;20381;54.498;18.206;2023-06-26T07:08:52;99594.06;;;27.52;55.63
34103;BME280;20381;54.498;18.206;2023-06-26T07:11:18;99594.32;;;28.70;55.44
34103;BME280;20381;54.498;18.206;2023-06-26T07:13:44;99596.30;;;29.68;54.61
34103;BME280;20381;54.498;18.206;2023-06-26T07:16:10;99602.01;;;30.74;54.20
34103;BME280;20381;54.498;18.206;2023-06-26T07:18:37;99594.80;;;30.81;51.72
34103;BME280;20381;54.498;18.206;2023-06-26T07:21:05;99598.09;;;31.10;51.55
34103;BME280;20381;54.498;18.206;2023-06-26T07:23:32;99591.99;;;31.97;51.49
34103;BME280;20381;54.498;18.206;2023-06-26T07:25:58;99584.83;;;32.31;49.86
34103;BME280;20381;54.498;18.206;2023-06-26T07:28:24;99584.64;;;32.90;49.75
34103;BME280;20381;54.498;18.206;2023-06-26T07:30:51;99591.86;;;32.96;47.60
34103;BME280;20381;54.498;18.206;2023-06-26T07:33:17;99584.67;;;33.52;48.27
34103;BME280;20381;54.498;18.206;2023-06-26T07:35:47;99576.33;;;33.90;46.61
34103;BME280;20381;54.498;18.206;2023-06-26T07:38:11;99576.30;;;34.08;45.94
34103;BME280;20381;54.498;18.206;2023-06-26T07:40:36;99583.25;;;34.35;44.53
34103;BME280;20381;54.498;18.206;2023-06-26T07:43:03;99576.08;;;35.06;43.46
34103;BME280;20381;54.498;18.206;2023-06-26T07:45:31;99575.13;;;35.12;42.92
34103;BME280;20381;54.498;18.206;2023-06-26T07:48:06;99574.66;;;35.15;42.16
34103;BME280;20381;54.498;18.206;2023-06-26T07:50:31;99571.70;;;35.05;41.09
34103;BME280;20381;54.498;18.206;2023-06-26T07:52:58;99575.25;;;35.17;40.63
34103;BME280;20381;54.498;18.206;2023-06-26T07:55:25;99569.77;;;35.64;39.91
34103;BME280;20381;54.498;18.206;2023-06-26T07:57:52;99568.36;;;36.30;38.94
34103;BME280;20381;54.498;18.206;2023-06-26T08:00:20;99573.43;;;37.45;38.29
34103;BME280;20381;54.498;18.206;2023-06-26T08:02:48;99562.95;;;38.89;37.88
34103;BME280;20381;54.498;18.206;2023-06-26T08:05:15;99560.97;;;39.22;36.51
34103;BME280;20381;54.498;18.206;2023-06-26T08:07:44;99563.44;;;39.26;35.47
34103;BME280;20381;54.498;18.206;2023-06-26T08:10:12;99562.48;;;40.34;34.37
34103;BME280;20381;54.498;18.206;2023-06-26T08:12:38;99561.08;;;41.83;33.97
34103;BME280;20381;54.498;18.206;2023-06-26T08:15:06;99553.05;;;42.70;33.04
34103;BME280;20381;54.498;18.206;2023-06-26T08:17:38;99554.34;;;43.07;31.60
34103;BME280;20381;54.498;18.206;2023-06-26T08:20:07;99555.21;;;43.56;30.79
34103;BME280;20381;54.498;18.206;2023-06-26T08:22:33;99551.27;;;43.38;29.79
34103;BME280;20381;54.498;18.206;2023-06-26T08:25:00;99548.49;;;42.61;28.81
34103;BME280;20381;54.498;18.206;2023-06-26T08:27:26;99548.75;;;42.62;28.00
34103;BME280;20381;54.498;18.206;2023-06-26T08:29:52;99550.39;;;41.11;27.04
34103;BME280;20381;54.498;18.206;2023-06-26T08:32:20;99544.34;;;41.20;27.18
34103;BME280;20381;54.498;18.206;2023-06-26T08:34:47;99549.80;;;41.87;26.31
34103;BME280;20381;54.498;18.206;2023-06-26T08:37:18;99550.55;;;42.45;25.78
34103;BME280;20381;54.498;18.206;2023-06-26T08:39:41;99548.09;;;43.93;25.42
34103;BME280;20381;54.498;18.206;2023-06-26T08:42:11;99545.98;;;44.22;24.25
34103;BME280;20381;54.498;18.206;2023-06-26T08:44:39;99546.32;;;44.02;23.55
34103;BME280;20381;54.498;18.206;2023-06-26T08:47:06;99546.49;;;44.08;23.00
34103;BME280;20381;54.498;18.206;2023-06-26T08:49:37;99542.50;;;44.36;22.81
34103;BME280;20381;54.498;18.206;2023-06-26T08:52:04;99551.20;;;44.43;22.38
34103;BME280;20381;54.498;18.206;2023-06-26T08:54:40;99544.75;;;45.10;22.12
34103;BME280;20381;54.498;18.206;2023-06-26T08:57:01;99539.61;;;45.73;21.15
34103;BME280;20381;54.498;18.206;2023-06-26T08:59:29;99544.97;;;46.39;20.78
34103;BME280;20381;54.498;18.206;2023-06-26T09:01:55;99546.41;;;47.59;20.36
34103;BME280;20381;54.498;18.206;2023-06-26T09:04:26;99536.89;;;48.41;19.57
34103;BME280;20381;54.498;18.206;2023-06-26T09:06:50;99531.69;;;47.04;19.07
34103;BME280;20381;54.498;18.206;2023-06-26T09:09:18;99530.41;;;46.25;18.82
34103;BME280;20381;54.498;18.206;2023-06-26T09:11:46;99524.73;;;47.15;18.77
34103;BME280;20381;54.498;18.206;2023-06-26T09:14:16;99524.52;;;48.38;18.67
34103;BME280;20381;54.498;18.206;2023-06-26T09:16:43;99524.16;;;50.18;17.75
34103;BME280;20381;54.498;18.206;2023-06-26T09:19:11;99519.45;;;50.95;17.11
34103;BME280;20381;54.498;18.206;2023-06-26T09:21:43;99522.93;;;51.47;16.65
34103;BME280;20381;54.498;18.206;2023-06-26T09:24:07;99519.05;;;52.04;16.22
34103;BME280;20381;54.498;18.206;2023-06-26T09:26:35;99521.69;;;52.35;15.91
34103;BME280;20381;54.498;18.206;2023-06-26T09:29:04;99512.19;;;52.36;15.46
34103;BME280;20381;54.498;18.206;2023-06-26T09:31:30;99514.39;;;51.03;14.89
34103;BME280;20381;54.498;18.206;2023-06-26T09:33:59;99515.31;;;51.13;15.06
34103;BME280;20381;54.498;18.206;2023-06-26T09:36:30;99510.24;;;52.46;14.72
34103;BME280;20381;54.498;18.206;2023-06-26T09:38:57;99500.39;;;53.67;14.62
34103;BME280;20381;54.498;18.206;2023-06-26T09:41:23;99497.20;;;54.30;14.07
34103;BME280;20381;54.498;18.206;2023-06-26T09:43:50;99497.77;;;55.12;13.84
34103;BME280;20381;54.498;18.206;2023-06-26T09:46:17;99491.97;;;55.25;13.35
34103;BME280;20381;54.498;18.206;2023-06-26T09:48:45;99494.02;;;55.14;13.08
34103;BME280;20381;54.498;18.206;2023-06-26T09:51:12;99492.06;;;54.92;12.71
34103;BME280;20381;54.498;18.206;2023-06-26T09:53:38;99492.86;;;55.02;12.69
34103;BME280;20381;54.498;18.206;2023-06-26T09:56:05;99490.55;;;54.35;12.18
34103;BME280;20381;54.498;18.206;2023-06-26T09:58:32;99484.29;;;54.22;12.23
34103;BME280;20381;54.498;18.206;2023-06-26T10:00:58;99481.20;;;53.56;12.22
34103;BME280;20381;54.498;18.206;2023-06-26T10:03:24;99480.80;;;54.06;12.07
34103;BME280;20381;54.498;18.206;2023-06-26T10:05:52;99481.39;;;54.15;11.86
34103;BME280;20381;54.498;18.206;2023-06-26T10:08:21;99473.27;;;53.87;11.84
34103;BME280;20381;54.498;18.206;2023-06-26T10:10:48;99461.81;;;54.61;11.66
34103;BME280;20381;54.498;18.206;2023-06-26T10:13:15;99467.44;;;55.14;11.42
34103;BME280;20381;54.498;18.206;2023-06-26T10:15:44;99462.17;;;55.09;11.32
34103;BME280;20381;54.498;18.206;2023-06-26T10:18:13;99447.39;;;54.00;10.80
34103;BME280;20381;54.498;18.206;2023-06-26T10:20:45;99462.61;;;51.91;10.96
34103;BME280;20381;54.498;18.206;2023-06-26T10:23:09;99451.48;;;50.86;11.05
34103;BME280;20381;54.498;18.206;2023-06-26T10:25:37;99460.78;;;50.20;11.24
34103;BME280;20381;54.498;18.206;2023-06-26T10:28:06;99451.48;;;49.20;11.31
34103;BME280;20381;54.498;18.206;2023-06-26T10:30:34;99446.67;;;49.59;11.41
34103;BME280;20381;54.498;18.206;2023-06-26T10:33:03;99444.52;;;50.31;11.24
34103;BME280;20381;54.498;18.206;2023-06-26T10:35:30;99441.64;;;49.73;11.16
34103;BME280;20381;54.498;18.206;2023-06-26T10:38:02;99436.66;;;47.74;11.10
34103;BME280;20381;54.498;18.206;2023-06-26T10:40:39;99432.06;;;47.09;11.44
34103;BME280;20381;54.498;18.206;2023-06-26T10:43:06;99426.13;;;48.00;11.61
34103;BME280;20381;54.498;18.206;2023-06-26T10:45:34;99427.42;;;46.78;11.27
34103;BME280;20381;54.498;18.206;2023-06-26T10:48:01;99425.28;;;46.67;11.97
34103;BME280;20381;54.498;18.206;2023-06-26T10:50:28;99422.98;;;48.90;11.98
34103;BME280;20381;54.498;18.206;2023-06-26T10:55:50;99414.31;;;50.54;11.52
34103;BME280;20381;54.498;18.206;2023-06-26T10:58:30;99409.94;;;48.90;11.25
34103;BME280;20381;54.498;18.206;2023-06-26T11:03:40;99410.61;;;48.87;11.46
34103;BME280;20381;54.498;18.206;2023-06-26T11:06:09;99415.16;;;46.91;11.26
34103;BME280;20381;54.498;18.206;2023-06-26T11:08:47;99417.83;;;47.13;11.59
34103;BME280;20381;54.498;18.206;2023-06-26T11:11:15;99409.97;;;47.26;11.07
34103;BME280;20381;54.498;18.206;2023-06-26T11:13:45;99402.65;;;46.64;11.47
34103;BME280;20381;54.498;18.206;2023-06-26T11:16:11;99404.55;;;46.35;11.58
34103;BME280;20381;54.498;18.206;2023-06-26T11:18:37;99399.13;;;45.18;11.44
34103;BME280;20381;54.498;18.206;2023-06-26T11:21:07;99396.59;;;44.22;12.22
34103;BME280;20381;54.498;18.206;2023-06-26T11:23:41;99394.56;;;43.24;12.08
34103;BME280;20381;54.498;18.206;2023-06-26T11:26:17;99400.99;;;40.80;12.51
34103;BME280;20381;54.498;18.206;2023-06-26T11:28:55;99393.98;;;38.85;13.08
34103;BME280;20381;54.498;18.206;2023-06-26T11:31:27;99398.19;;;36.88;13.58
34103;BME280;20381;54.498;18.206;2023-06-26T11:33:56;99395.02;;;35.56;14.51
34103;BME280;20381;54.498;18.206;2023-06-26T11:36:30;99409.42;;;34.31;15.47
34103;BME280;20381;54.498;18.206;2023-06-26T11:38:58;99400.83;;;32.65;15.24
34103;BME280;20381;54.498;18.206;2023-06-26T11:41:22;99398.03;;;31.10;16.16
34103;BME280;20381;54.498;18.206;2023-06-26T11:43:48;99406.26;;;30.44;17.39
34103;BME280;20381;54.498;18.206;2023-06-26T11:46:18;99407.83;;;30.42;18.01
34103;BME280;20381;54.498;18.206;2023-06-26T11:48:47;99406.33;;;31.31;18.62
34103;BME280;20381;54.498;18.206;2023-06-26T11:51:14;99400.31;;;32.06;18.91
34103;BME280;20381;54.498;18.206;2023-06-26T11:53:41;99403.11;;;31.93;18.86
34103;BME280;20381;54.498;18.206;2023-06-26T11:56:09;99397.91;;;31.75;19.04
34103;BME280;20381;54.498;18.206;2023-06-26T11:58:36;99403.78;;;31.50;19.31
34103;BME280;20381;54.498;18.206;2023-06-26T12:01:03;99400.68;;;30.94;20.19
34103;BME280;20381;54.498;18.206;2023-06-26T12:03:31;99398.08;;;30.41;20.26
34103;BME280;20381;54.498;18.206;2023-06-26T12:05:59;99395.38;;;30.01;20.42
34103;BME280;20381;54.498;18.206;2023-06-26T12:08:26;99399.02;;;29.60;21.83
34103;BME280;20381;54.498;18.206;2023-06-26T12:10:53;99389.49;;;29.20;21.43
34103;BME280;20381;54.498;18.206;2023-06-26T12:13:19;99391.95;;;28.98;22.19
34103;BME280;20381;54.498;18.206;2023-06-26T12:15:45;99389.17;;;28.78;22.33
34103;BME280;20381;54.498;18.206;2023-06-26T12:18:12;99384.86;;;28.84;22.44
34103;BME280;20381;54.498;18.206;2023-06-26T12:20:39;99386.44;;;29.06;22.77
34103;BME280;20381;54.498;18.206;2023-06-26T12:23:11;99382.70;;;29.25;22.61
34103;BME280;20381;54.498;18.206;2023-06-26T12:25:35;99392.28;;;29.16;23.68
34103;BME280;20381;54.498;18.206;2023-06-26T12:28:01;99382.88;;;28.99;23.04
34103;BME280;20381;54.498;18.206;2023-06-26T12:30:28;99386.27;;;28.97;23.90
34103;BME280;20381;54.498;18.206;2023-06-26T12:32:54;99380.12;;;28.86;24.19
34103;BME280;20381;54.498;18.206;2023-06-26T12:35:21;99371.02;;;28.87;23.80
34103;BME280;20381;54.498;18.206;2023-06-26T12:37:47;99364.09;;;28.64;24.13
34103;BME280;20381;54.498;18.206;2023-06-26T12:40:17;99367.75;;;28.28;24.19
34103;BME280;20381;54.498;18.206;2023-06-26T12:42:44;99368.14;;;27.86;24.67
34103;BME280;20381;54.498;18.206;2023-06-26T12:45:11;99366.92;;;27.89;26.13
34103;BME280;20381;54.498;18.206;2023-06-26T12:47:40;99367.19;;;27.83;25.82
34103;BME280;20381;54.498;18.206;2023-06-26T12:50:14;99365.50;;;27.61;26.13
34103;BME280;20381;54.498;18.206;2023-06-26T12:52:38;99362.18;;;27.37;25.89
34103;BME280;20381;54.498;18.206;2023-06-26T12:55:04;99354.44;;;27.17;26.40
34103;BME280;20381;54.498;18.206;2023-06-26T12:57:31;99356.44;;;26.89;26.46